• Join FlightAware (Why Join?)
  • Login
  • US Flag 
08:10AM EST


 

Airport Tracker/Info


-or-


 

Live Flight TrackerFlight Track Log ✈ N749PG ✈ 18-Jan-2014 ✈ MYNN / NAS - MBPV / PLS

Flight Track Log - Related Links

Times and Time Zones

All times are in EST time to prevent confusion due to time zone crossing. See the N749PG flight status page for this flight to view local times or setup timezone preferences in your user account.

Time Position Orientation Groundspeed Altitude Reporting Facility
EST Latitude Longitude Course Direction KTS MPH feet Rate Location/Type
11:56AM 25.0150 -77.5375 123° Southeast 161 185 3,500  Level Miami Center
11:57AM 24.9942 -77.5100 130° Southeast 97 112 4,400 900 Climbing Miami Center
11:58AM 24.9861 -77.4686 102° East 97 112 5,300 840 Climbing Miami Center
11:59AM 24.9819 -77.4250 96° East 109 125 6,100 720 Climbing Miami Center
12:00PM 24.9781 -77.3792 95° East 131 151 6,800 360 Climbing Miami Center
12:01PM 24.9531 -77.3403 125° Southeast 143 165 6,900  Climbing Miami Center
12:02PM 24.8921 -77.2204 123° Southeast  Level Estimated
12:02PM 24.9219 -77.2989 130° Southeast 159 183 6,900  Level Miami Center
12:03PM 24.8906 -77.2575 130° Southeast 171 197 6,900  Level Miami Center
12:04PM 24.8572 -77.2161 132° Southeast 176 203 6,900  Level Miami Center
12:05PM 24.8261 -77.1725 128° Southeast 181 208 6,900  Level Miami Center
12:06PM 24.7925 -77.1311 132° Southeast 181 208 6,900  Level Miami Center
12:07PM 24.7614 -77.0900 130° Southeast 186 214 6,900  Level Miami Center
12:08PM 24.7281 -77.0486 132° Southeast 186 214 6,900  Level Miami Center
12:09PM 24.6989 -77.0097 130° Southeast 186 214 6,900  Level Miami Center
12:10PM 24.6717 -76.9664 125° Southeast 181 208 6,900  Level Miami Center
12:11PM 24.6403 -76.9206 127° Southeast 181 208 6,900  Level Miami Center
12:12PM 24.6131 -76.8747 123° Southeast 175 201 6,900  Level Miami Center
12:13PM 24.5858 -76.8292 123° Southeast 175 201 6,900  Level Miami Center
12:14PM 24.5547 -76.7858 128° Southeast 175 201 6,900  Level Miami Center
12:15PM 24.5275 -76.7378 122° Southeast 175 201 6,900  Level Miami Center
12:16PM 24.4981 -76.6944 127° Southeast 175 201 6,900  Level Miami Center
12:17PM 24.4689 -76.6489 125° Southeast 175 201 6,900  Level Miami Center
12:18PM 24.4414 -76.6031 123° Southeast 175 201 6,900  Level Miami Center
12:19PM 24.4058 -76.5508 127° Southeast 181 208 6,900  Level Miami Center
12:20PM 24.3786 -76.5053 123° Southeast 181 208 6,900  Level Miami Center
12:21PM 24.3492 -76.4597 125° Southeast 181 208 6,900  Level Miami Center
12:22PM 24.3219 -76.4164 125° Southeast 176 203 6,900  Level Miami Center
12:23PM 24.2925 -76.3686 124° Southeast 176 203 6,900  Level Miami Center
12:24PM 24.2631 -76.3231 125° Southeast 176 203 6,900  Level Miami Center
12:25PM 24.2336 -76.2778 125° Southeast 176 203 6,900  Level Miami Center
12:26PM 24.2083 -76.2414 127° Southeast 176 203 6,900  Level Miami Center
12:27PM 24.1811 -76.1983 125° Southeast 176 203 6,900  Level Miami Center
12:28PM 24.1517 -76.1528 125° Southeast 176 203 6,900  Level Miami Center
12:29PM 24.1222 -76.1053 124° Southeast 176 203 6,900  Level Miami Center
12:30PM 24.0947 -76.0622 125° Southeast 176 203 6,900  Level Miami Center
12:31PM 24.0653 -76.0167 125° Southeast 176 203 6,900 -120 Level Miami Center
12:32PM 24.0378 -75.9714 124° Southeast 176 203 6,700 -120 Descending Miami Center
12:33PM 24.0083 -75.9261 125° Southeast 176 203 6,700  Level Miami Center
12:34PM 23.9767 -75.8808 127° Southeast 176 203 6,700  Level Miami Center
12:35PM 23.9469 -75.8333 124° Southeast 176 203 6,700  Level Miami Center
12:36PM 23.9194 -75.7906 125° Southeast 176 203 6,700  Level Miami Center
12:37PM 23.8900 -75.7431 124° Southeast 176 203 6,700 120 Level Miami Center
12:38PM 23.8603 -75.7000 127° Southeast 176 203 7,000 120 Climbing Miami Center
12:39PM 23.8308 -75.6528 124° Southeast 176 203 7,000  Level Miami Center
12:40PM 23.8011 -75.6053 124° Southeast 176 203 7,000  Level Miami Center
12:41PM 23.7694 -75.5603 128° Southeast 176 203 7,000  Level Miami Center
12:42PM 23.7397 -75.5128 124° Southeast 176 203 7,000 -60 Level Miami Center
12:43PM 23.7122 -75.4678 124° Southeast 176 203 6,900 -60 Descending Miami Center
12:44PM 23.6825 -75.4228 126° Southeast 176 203 6,900  Level Miami Center
12:45PM 23.6528 -75.3775 126° Southeast 176 203 7,000  Climbing Miami Center
12:46PM 23.6208 -75.3281 125° Southeast 176 203 7,000 -60 Level Miami Center
12:47PM 23.5933 -75.2831 124° Southeast 176 203 6,900 -60 Descending Miami Center
12:48PM 23.5656 -75.2381 124° Southeast 176 203 6,900  Level Miami Center
12:49PM 23.5422 -75.1908 118° Southeast 176 203 7,000  Climbing Miami Center
12:50PM 23.5206 -75.1458 118° Southeast 171 197 6,900 -60 Descending Miami Center
12:51PM 23.4950 -75.0986 121° Southeast 166 191 6,900  Level Miami Center
12:52PM 23.4714 -75.0492 117° Southeast 166 191 6,900  Level Miami Center
12:53PM 23.4458 -75.0019 121° Southeast 171 197 7,000  Climbing Miami Center
12:54PM 23.4222 -74.9569 120° Southeast 171 197 7,000  Level Miami Center
12:55PM 23.4008 -74.9142 119° Southeast 171 197 7,000  Level Miami Center
12:56PM 23.3814 -74.8647 113° Southeast 171 197 7,000 -60 Level Miami Center
12:57PM 23.3558 -74.8222 123° Southeast 171 197 6,900  Descending Miami Center
12:58PM 23.3342 -74.7772 118° Southeast 171 197 7,000  Climbing Miami Center
12:59PM 23.3106 -74.7325 120° Southeast 171 197 6,900  Descending Miami Center
01:00PM 23.2892 -74.6875 117° Southeast 166 191 7,000  Climbing Miami Center
01:01PM 23.2656 -74.6428 120° Southeast 166 191 7,000 -60 Level Miami Center
01:02PM 23.2417 -74.5978 120° Southeast 166 191 6,900 -60 Descending Miami Center
01:03PM 23.2222 -74.5531 115° Southeast 166 191 6,900  Level Miami Center
01:04PM 23.1986 -74.5083 120° Southeast 166 191 6,900  Level Miami Center
01:05PM 23.1750 -74.4658 121° Southeast 166 191 6,900  Level Miami Center
01:06PM 23.1533 -74.4233 119° Southeast 166 191 7,000  Climbing Miami Center
01:07PM 23.1317 -74.3808 119° Southeast 166 191 6,900  Descending Miami Center
01:08PM 23.1103 -74.3383 119° Southeast 166 191 7,000  Climbing Miami Center
01:09PM 23.0864 -74.2936 120° Southeast 166 191 7,000  Level Miami Center
01:10PM 23.0628 -74.2489 120° Southeast 166 191 7,000  Level Miami Center
01:11PM 23.0431 -74.2064 117° Southeast 166 191 7,000  Level Miami Center
01:12PM 23.0172 -74.1617 122° Southeast 161 185 7,000  Level Miami Center
01:13PM 22.9956 -74.1194 119° Southeast 161 185 7,000 -60 Level Miami Center
01:14PM 22.9761 -74.0769 116° Southeast 161 185 6,900 -60 Descending Miami Center
01:15PM 22.9522 -74.0344 121° Southeast 161 185 6,900  Level Miami Center
01:16PM 22.9328 -73.9944 118° Southeast 161 185 6,900  Level Miami Center
01:17PM 22.9111 -73.9542 120° Southeast 161 185 7,000  Climbing Miami Center
01:18PM 22.8872 -73.9097 120° Southeast 161 185 7,000  Level Miami Center
01:19PM 22.8656 -73.8675 119° Southeast 161 185 7,000 -60 Level Miami Center
01:20PM 22.8461 -73.8317 120° Southeast 161 185 6,900  Descending Miami Center
01:21PM 22.8264 -73.7894 117° Southeast 161 185 7,000  Climbing Miami Center
01:22PM 22.8025 -73.7472 122° Southeast 161 185 7,000 -60 Level Miami Center
01:23PM 22.7808 -73.7028 118° Southeast 161 185 6,900  Descending Miami Center
01:24PM 22.7567 -73.6583 121° Southeast 161 185 7,000  Climbing Miami Center
01:25PM 22.7350 -73.6183 120° Southeast 161 185 7,000  Level Miami Center
01:26PM 22.7133 -73.5739 118° Southeast 161 185 7,000  Level Miami Center
01:27PM 22.6525 -73.3794 109° East 161 185 7,000  Level Miami Center
01:28PM 22.6481 -73.3706 118° Southeast 161 185 7,000  Level Miami Center
01:29PM 22.6261 -73.3264 118° Southeast 161 185 7,000  Level Miami Center
01:30PM 22.6086 -73.2908 118° Southeast 161 185 7,000  Level Miami Center
01:32PM 22.6086 -73.2908 290° West 161 185 7,000  Level Miami Center
01:34PM 22.6086 -73.2908 290° West 161 185 7,000  Level Miami Center
01:36PM 22.4925 -73.1478 131° Southeast 161 185 7,000 -60 Level Miami Center
01:37PM 22.4594 -73.0836 119° Southeast 161 185 6,900  Descending Miami Center
01:38PM 22.4356 -73.0394 120° Southeast 161 185 7,000  Climbing Miami Center
01:39PM 22.4092 -72.9953 123° Southeast 166 191 7,000  Level Miami Center
01:40PM 22.3892 -72.9489 115° Southeast 166 191 7,000 -60 Level Miami Center
01:41PM 22.3631 -72.9047 123° Southeast 166 191 6,900 -60 Descending Miami Center
01:42PM 22.3389 -72.8583 119° Southeast 166 191 6,900  Level Miami Center
01:43PM 22.3147 -72.8142 121° Southeast 166 191 6,900  Level Miami Center
01:44PM 22.2906 -72.7656 118° Southeast 171 197 6,900  Level Miami Center
01:45PM 22.2664 -72.7192 119° Southeast 171 197 6,900  Level Miami Center
01:46PM 22.2422 -72.6750 121° Southeast 176 203 6,900 -120 Level Miami Center
01:47PM 22.2178 -72.6286 120° Southeast 176 203 6,700 -420 Descending Miami Center
01:48PM 22.1933 -72.5758 117° Southeast 181 208 6,100 -600 Descending Miami Center
01:50PM 22.1685 -72.5296 120° Southeast  Level FlightAware Approximate
01:57PM 22.0006 -72.2349 185° South  Level FlightAware Approximate
01:58PM 21.9537 -72.2396 185° South  Level FlightAware Approximate
01:59PM 21.9068 -72.2443 185° South  Level FlightAware Approximate
02:00PM 21.8598 -72.2490 185° South  Level FlightAware Approximate
02:01PM 21.8134 -72.2573 191° South  Level FlightAware Approximate
02:02PM 21.7671 -72.2666 191° South  Level FlightAware Approximate
02:03PM 21.7667 -72.2667 191° South  Level FlightAware Approximate
02:04PM 21.7736 -72.2659 191° South  Level Estimated
02:05PM 21.7667 -72.2667 191° South  Level FlightAware Approximate
02:06PM 21.7736 -72.2659 191° South  Level Estimated
02:07PM 21.7667 -72.2667 191° South  Level FlightAware Approximate
02:08PM 21.7736 -72.2659 191° South  Level Estimated
02:09PM 21.7667 -72.2667 191° South  Level FlightAware Approximate
02:10PM 21.7736 -72.2659 191° South  Level Estimated
02:11PM 21.7667 -72.2667 191° South  Level FlightAware Approximate
02:12PM 21.7736 -72.2659 191° South  Level Estimated
02:13PM 21.7667 -72.2667 191° South  Level FlightAware Approximate
02:14PM 21.7736 -72.2659 191° South  Level Estimated
02:15PM 21.7667 -72.2667 191° South  Level FlightAware Approximate
02:16PM 21.7736 -72.2659 191° South  Level Estimated
02:17PM 21.7667 -72.2667 191° South  Level FlightAware Approximate
02:18PM 21.7736 -72.2659 191° South  Level Estimated